Ogden Hinckley Airport
KOGD : now visible

Airfield :











YOU CAN JOIN US ON...

 
LOGIN :

Register | Disclaimer

   EN    FR    IT 

 









Legend :    VFR   Marginal VFR   IFR   Intensive IFR   Very Intensive IFR
Visi :
Ceiling :
>= 8 km
>= 3000ft
5 to 8 km
1000 to 3000 ft
1500m to 5 km
500 to 1000 ft
800 to 1500m
200 to 500 ft
< 800m
< 200 ft
Symbols :   Thunderstorms  Fog  Heavy snow  Heavy precipitations  Wind > 20 kt






- Airport Elevation : 4473 ft


KOGD - Ogden Hinckley

CURRENT METAR :
  • 231953Z 24008KT 180V300 10SM CLR 33/02 A2998 RMK AO2 SLP075 T03280017 $

EXPIRED METARs :
  • 231853Z 21006KT 10SM CLR 32/01 A2999 RMK AO2 SLP079 T03220011 $
  • 231753Z 01006KT 10SM CLR 31/08 A3000 RMK AO2 SLP088 T03060078 10311 20222 51004 $

TAF KOGD
Valid from the 23 at 18:00 until the 24 at 18:00 UTC


231739Z 2318/2418 18008KT P6SM SCT100 BKN250
FM232100 24009KT P6SM SCT100 BKN200
FM240300 17008KT P6SM VCSH SCT080 BKN100
FM241200 17005KT P6SM -RA BKN080 OVC100
KZLC FIR / North America



MET'MAP, your aeronautical weather chart ! - Copyright ORBIFLY December 2007 - Disclaimer

ORBIFLY MET'MAP TEAM :

Programming & Development : Alexandra Zaïnal
Concept & original design : Baudouin d'Aumeries
Assistance for programming : Marc-Olivier Méhu
Technical & hardware support : Manuel Goepfert

Contact : metmap@orbifly.com




SOURCES & CREDITS :

   NOAA       Earth
Advisory